createdAt,value
2019-06-26T00:02:26.124Z,13.30
2019-06-26T00:04:53.516Z,14.40
2019-06-26T00:07:20.971Z,13.67
2019-06-26T00:09:48.384Z,13.10
2019-06-26T00:12:15.713Z,16.30
2019-06-26T00:14:43.059Z,15.70
2019-06-26T00:17:10.421Z,14.57
2019-06-26T00:19:37.810Z,15.63
2019-06-26T00:22:05.149Z,16.77
2019-06-26T00:24:32.583Z,16.23
2019-06-26T00:26:59.928Z,15.10
2019-06-26T00:29:27.366Z,14.10
2019-06-26T00:31:55.107Z,15.00
2019-06-26T00:34:22.555Z,16.97
2019-06-26T00:36:50.055Z,16.73
2019-06-26T00:39:17.659Z,15.73
2019-06-26T00:41:45.082Z,15.77
2019-06-26T00:44:12.443Z,15.37
2019-06-26T00:46:39.777Z,14.23
2019-06-26T00:49:07.063Z,13.20
2019-06-26T00:51:34.403Z,16.27
2019-06-26T00:54:01.735Z,15.43
2019-06-26T00:56:29.170Z,15.93
2019-06-26T00:58:56.575Z,16.80
2019-06-26T01:01:23.913Z,17.13
2019-06-26T01:03:53.027Z,15.77
2019-06-26T01:06:38.613Z,17.23
2019-06-26T01:09:06.373Z,15.93
2019-06-26T01:11:33.809Z,17.33
2019-06-26T01:14:01.162Z,18.20
2019-06-26T01:16:28.632Z,18.10
2019-06-26T01:18:55.956Z,16.30
2019-06-26T01:21:23.378Z,16.70
2019-06-26T01:23:50.698Z,17.97
2019-06-26T01:26:17.988Z,17.57
2019-06-26T01:28:45.426Z,20.60
2019-06-26T01:31:12.731Z,20.60
2019-06-26T01:33:40.153Z,19.37
2019-06-26T01:36:07.471Z,19.73
2019-06-26T01:38:34.940Z,18.00
2019-06-26T01:41:02.253Z,18.13
2019-06-26T01:43:29.558Z,15.77
2019-06-26T01:45:56.852Z,15.00
2019-06-26T01:48:24.204Z,15.27
2019-06-26T01:50:51.602Z,14.83
2019-06-26T01:53:18.970Z,13.20
2019-06-26T01:55:46.289Z,13.87
2019-06-26T01:58:13.573Z,14.23
2019-06-26T02:00:40.936Z,12.53
2019-06-26T02:03:08.201Z,12.90
2019-06-26T02:05:35.548Z,11.70
2019-06-26T02:08:02.974Z,13.60
2019-06-26T02:10:30.370Z,15.20
2019-06-26T02:12:57.685Z,13.93
2019-06-26T02:15:25.116Z,13.73
2019-06-26T02:17:52.430Z,14.73
2019-06-26T02:20:20.131Z,16.57
2019-06-26T02:22:49.530Z,15.00
2019-06-26T02:25:17.025Z,12.97
2019-06-26T02:27:44.536Z,13.83
2019-06-26T02:30:12.028Z,12.90
2019-06-26T02:32:39.655Z,11.03
2019-06-26T02:35:09.885Z,12.50
2019-06-26T02:37:36.304Z,13.43
2019-06-26T02:40:04.380Z,15.17
2019-06-26T02:42:31.905Z,14.43
2019-06-26T02:44:59.193Z,14.60
2019-06-26T02:47:26.846Z,13.60
2019-06-26T02:49:54.482Z,14.60
2019-06-26T02:52:21.808Z,15.30
2019-06-26T02:54:49.137Z,14.80
2019-06-26T02:57:16.555Z,15.40
2019-06-26T02:59:43.850Z,15.97
2019-06-26T03:02:11.295Z,15.07
2019-06-26T03:04:38.682Z,13.60
2019-06-26T03:07:06.002Z,14.40
2019-06-26T03:09:33.303Z,14.33
2019-06-26T03:12:00.654Z,14.03
2019-06-26T03:14:28.062Z,13.50
2019-06-26T03:16:55.854Z,13.97
2019-06-26T03:19:23.241Z,13.80
2019-06-26T03:21:50.557Z,14.63
2019-06-26T03:24:17.959Z,14.57
2019-06-26T03:26:45.340Z,13.73
2019-06-26T03:29:12.734Z,14.20
2019-06-26T03:31:40.157Z,14.37
2019-06-26T03:34:07.637Z,13.70
2019-06-26T03:36:35.010Z,13.30
2019-06-26T03:39:04.262Z,13.40
2019-06-26T03:41:31.547Z,13.33
2019-06-26T03:43:58.877Z,13.03
2019-06-26T03:46:26.288Z,12.27
2019-06-26T03:48:53.696Z,11.80
2019-06-26T03:51:20.995Z,12.13
2019-06-26T03:53:48.312Z,12.70
2019-06-26T03:56:15.722Z,12.10
2019-06-26T03:58:43.051Z,13.70
2019-06-26T04:01:10.706Z,12.00
2019-06-26T04:03:38.108Z,14.20
2019-06-26T04:06:05.551Z,14.83
2019-06-26T04:08:32.943Z,13.70
2019-06-26T04:11:00.378Z,14.33
2019-06-26T04:13:27.797Z,14.50
2019-06-26T04:15:55.123Z,11.60
2019-06-26T04:18:22.566Z,13.00
2019-06-26T04:20:49.919Z,12.37
2019-06-26T04:23:17.264Z,14.90
2019-06-26T04:25:44.605Z,13.03
2019-06-26T04:28:11.939Z,13.60
2019-06-26T04:30:39.369Z,15.20
2019-06-26T04:33:06.667Z,14.90
2019-06-26T04:35:34.053Z,16.53
2019-06-26T04:38:01.418Z,16.90
2019-06-26T04:40:29.066Z,16.37
2019-06-26T04:42:56.523Z,16.90
2019-06-26T04:45:23.890Z,16.03
2019-06-26T04:47:51.213Z,15.40
2019-06-26T04:50:21.297Z,17.03
2019-06-26T04:52:48.675Z,16.57
2019-06-26T04:55:16.052Z,16.73
2019-06-26T04:57:43.481Z,17.03
2019-06-26T05:00:11.310Z,17.63
2019-06-26T05:02:38.642Z,20.30
2019-06-26T05:05:06.437Z,18.43
2019-06-26T05:07:34.167Z,20.60
2019-06-26T05:10:01.586Z,20.90
2019-06-26T05:12:29.046Z,20.83
2019-06-26T05:14:56.707Z,22.20
2019-06-26T05:17:24.449Z,21.60
2019-06-26T05:19:51.783Z,23.50
2019-06-26T05:22:19.113Z,22.90
2019-06-26T05:24:46.666Z,25.53
2019-06-26T05:27:14.170Z,24.40
2019-06-26T05:29:41.550Z,24.20
2019-06-26T05:32:08.868Z,27.03
2019-06-26T05:34:36.285Z,24.03
2019-06-26T05:37:04.104Z,25.87
2019-06-26T05:39:31.836Z,27.07
2019-06-26T05:41:59.273Z,26.00
2019-06-26T05:44:26.615Z,29.93
2019-06-26T05:46:54.032Z,27.70
2019-06-26T05:49:21.372Z,29.53
2019-06-26T05:51:48.672Z,30.70
2019-06-26T05:54:16.132Z,31.30
2019-06-26T05:56:45.445Z,28.60
2019-06-26T05:59:12.664Z,32.20
2019-06-26T06:01:39.985Z,28.33
2019-06-26T06:04:07.337Z,29.57
2019-06-26T06:06:41.741Z,33.53
2019-06-26T06:09:05.393Z,35.90
2019-06-26T06:11:32.744Z,32.30
2019-06-26T06:14:00.080Z,30.67
2019-06-26T06:16:27.558Z,32.70
2019-06-26T06:18:55.045Z,30.13
2019-06-26T06:21:22.416Z,29.27
2019-06-26T06:23:49.790Z,30.97
2019-06-26T06:26:17.214Z,31.17
2019-06-26T06:28:44.614Z,31.23
2019-06-26T06:31:12.004Z,29.60
2019-06-26T06:33:39.646Z,29.50
2019-06-26T06:36:09.642Z,30.97
2019-06-26T06:38:36.419Z,31.93
2019-06-26T06:41:03.874Z,28.03
2019-06-26T06:43:31.405Z,28.60
2019-06-26T06:45:59.798Z,30.67
2019-06-26T06:48:27.271Z,28.20
2019-06-26T06:50:54.935Z,27.77
2019-06-26T06:53:24.634Z,28.70
2019-06-26T06:55:51.971Z,25.90
2019-06-26T06:58:20.294Z,25.33
2019-06-26T07:00:48.055Z,26.70
2019-06-26T07:03:16.724Z,28.13
2019-06-26T07:05:44.119Z,25.70
2019-06-26T07:08:11.507Z,26.93
2019-06-26T07:10:40.238Z,24.07
2019-06-26T07:13:08.396Z,22.43
2019-06-26T07:15:35.827Z,22.93
2019-06-26T07:18:03.544Z,23.53
2019-06-26T07:20:30.992Z,22.57
2019-06-26T07:22:58.687Z,23.97
2019-06-26T07:25:26.102Z,21.40
2019-06-26T07:27:53.507Z,24.57
2019-06-26T07:30:21.738Z,26.47
2019-06-26T07:32:49.282Z,27.60
2019-06-26T07:35:16.600Z,22.70
2019-06-26T07:37:43.874Z,23.00
2019-06-26T07:40:11.516Z,25.60
2019-06-26T07:42:38.810Z,23.07
2019-06-26T07:45:06.910Z,22.20
2019-06-26T07:47:43.062Z,22.43
2019-06-26T07:50:03.924Z,21.67
2019-06-26T07:52:31.277Z,19.00
2019-06-26T07:54:58.730Z,20.83
2019-06-26T07:57:26.046Z,18.27
2019-06-26T07:59:53.391Z,17.30
2019-06-26T08:02:20.783Z,17.70
2019-06-26T08:04:48.586Z,16.50
2019-06-26T08:07:15.943Z,17.93
2019-06-26T08:09:43.631Z,18.20
2019-06-26T08:12:11.030Z,17.30
2019-06-26T08:14:38.484Z,17.90
2019-06-26T08:17:05.954Z,15.10
2019-06-26T08:19:33.375Z,15.67
2019-06-26T08:22:00.727Z,14.73
2019-06-26T08:24:28.126Z,16.97
2019-06-26T08:26:55.523Z,15.10
2019-06-26T08:29:22.890Z,16.30
2019-06-26T08:31:50.482Z,15.53
2019-06-26T08:34:18.029Z,17.27
2019-06-26T08:36:45.593Z,15.30
2019-06-26T08:39:13.361Z,14.87
2019-06-26T08:41:40.835Z,16.73
2019-06-26T08:44:08.310Z,14.87
2019-06-26T08:46:36.117Z,15.00
2019-06-26T08:49:03.625Z,15.00
2019-06-26T08:51:31.127Z,15.90
2019-06-26T08:53:58.661Z,14.00
2019-06-26T08:56:26.279Z,14.27
2019-06-26T08:58:53.849Z,12.87
2019-06-26T09:01:21.347Z,14.87
2019-06-26T09:03:48.820Z,14.40
2019-06-26T09:06:16.213Z,12.60
2019-06-26T09:08:43.649Z,13.30
2019-06-26T09:11:11.011Z,12.60
2019-06-26T09:13:38.472Z,15.00
2019-06-26T09:16:05.904Z,12.80
2019-06-26T09:18:35.879Z,12.43
2019-06-26T09:21:02.719Z,14.10
2019-06-26T09:23:32.473Z,14.97
2019-06-26T09:25:59.776Z,12.73
2019-06-26T09:28:27.232Z,12.83
2019-06-26T09:30:54.682Z,14.07
2019-06-26T09:33:22.018Z,12.60
2019-06-26T09:35:49.526Z,12.60
2019-06-26T09:38:17.027Z,13.20
2019-06-26T09:40:44.383Z,12.37
2019-06-26T09:43:11.695Z,12.23
2019-06-26T09:45:39.113Z,11.20
2019-06-26T09:48:09.397Z,11.20
2019-06-26T09:50:36.845Z,11.27
2019-06-26T09:53:05.564Z,11.67
2019-06-26T09:55:33.517Z,12.33
2019-06-26T09:58:01.299Z,11.97
2019-06-26T10:00:28.999Z,11.73
2019-06-26T10:02:56.409Z,12.30
2019-06-26T10:05:23.787Z,11.33
2019-06-26T10:07:51.267Z,10.47
2019-06-26T10:10:19.327Z,11.27
2019-06-26T10:12:46.918Z,10.10
2019-06-26T10:15:15.568Z,10.00
2019-06-26T10:17:43.073Z,10.07
2019-06-26T10:20:10.919Z,10.00
2019-06-26T10:22:38.445Z,9.60
2019-06-26T10:25:10.109Z,9.60
2019-06-26T10:27:35.816Z,9.40
2019-06-26T10:30:04.364Z,8.83
2019-06-26T10:32:32.894Z,8.20
2019-06-26T10:35:00.377Z,9.43
2019-06-26T10:37:27.857Z,9.23
2019-06-26T10:39:55.261Z,9.13
2019-06-26T10:42:23.218Z,10.00
2019-06-26T10:44:50.822Z,8.77
2019-06-26T10:47:18.276Z,9.27
2019-06-26T10:49:46.110Z,9.63
2019-06-26T10:52:13.570Z,9.93
2019-06-26T10:54:44.324Z,10.10
2019-06-26T10:57:16.793Z,9.07
2019-06-26T10:59:44.387Z,9.50
2019-06-26T11:02:11.871Z,8.80
2019-06-26T11:04:39.500Z,9.10
2019-06-26T11:07:06.925Z,9.90
2019-06-26T11:09:34.503Z,10.00
2019-06-26T11:12:01.938Z,9.20
2019-06-26T11:14:29.369Z,8.03
2019-06-26T11:16:56.929Z,8.67
2019-06-26T11:19:24.335Z,8.03
2019-06-26T11:21:52.134Z,7.33
2019-06-26T11:24:20.066Z,8.03
2019-06-26T11:26:47.634Z,6.93
2019-06-26T11:29:15.977Z,6.87
2019-06-26T11:31:43.759Z,6.50
2019-06-26T11:34:16.702Z,5.83
2019-06-26T11:37:02.721Z,6.53
2019-06-26T11:39:17.679Z,5.80
2019-06-26T11:41:45.111Z,5.27
2019-06-26T11:44:14.807Z,5.80
2019-06-26T11:46:42.176Z,6.67
2019-06-26T11:49:09.697Z,5.33
2019-06-26T11:51:37.238Z,6.00
2019-06-26T11:54:04.977Z,7.03
2019-06-26T11:56:32.485Z,6.60
2019-06-26T11:59:02.142Z,6.30
2019-06-26T12:01:29.662Z,6.27
2019-06-26T12:03:57.084Z,5.70
2019-06-26T12:06:24.536Z,6.30
2019-06-26T12:08:51.920Z,7.10
2019-06-26T12:11:19.365Z,5.47
2019-06-26T12:13:46.871Z,5.97
2019-06-26T12:16:14.322Z,5.60
2019-06-26T12:18:41.977Z,6.37
2019-06-26T12:21:09.792Z,7.30
2019-06-26T12:23:37.178Z,7.35
2019-06-26T12:26:04.606Z,6.05
2019-06-26T12:28:32.054Z,6.12
2019-06-26T12:30:59.915Z,5.55
2019-06-26T12:33:27.469Z,6.35
2019-06-26T12:35:54.897Z,7.17
2019-06-26T12:38:22.258Z,7.05
2019-06-26T12:40:49.717Z,7.47
2019-06-26T12:43:17.159Z,7.42
2019-06-26T12:45:44.694Z,7.72
2019-06-26T12:48:15.200Z,7.92
2019-06-26T12:50:41.526Z,7.28
2019-06-26T12:53:08.998Z,7.60
2019-06-26T12:55:36.482Z,8.78
2019-06-26T12:58:13.681Z,8.75
2019-06-26T13:00:33.335Z,8.28
2019-06-26T13:03:00.876Z,8.15
2019-06-26T13:05:28.383Z,9.03
2019-06-26T13:07:56.052Z,8.65
2019-06-26T13:10:23.787Z,8.60
2019-06-26T13:12:51.285Z,7.80
2019-06-26T13:15:18.974Z,7.37
2019-06-26T13:17:48.812Z,8.08
2019-06-26T13:20:16.719Z,9.10
2019-06-26T13:22:44.203Z,7.95
2019-06-26T13:25:15.749Z,7.30
2019-06-26T13:27:42.275Z,8.05
2019-06-26T13:30:10.287Z,7.72
2019-06-26T13:32:37.691Z,7.25
2019-06-26T13:35:06.081Z,7.75
2019-06-26T13:37:33.461Z,7.80
2019-06-26T13:40:00.788Z,6.30
2019-06-26T13:42:28.241Z,7.60
2019-06-26T13:44:55.617Z,7.22
2019-06-26T13:47:23.068Z,7.08
2019-06-26T13:49:50.545Z,7.97
2019-06-26T13:52:18.176Z,6.08
2019-06-26T13:54:45.644Z,6.83
2019-06-26T13:57:15.800Z,5.95
2019-06-26T13:59:42.370Z,6.35
2019-06-26T14:02:09.789Z,4.97
2019-06-26T14:04:38.400Z,5.33
2019-06-26T14:07:08.572Z,5.53
2019-06-26T14:09:35.023Z,7.28
2019-06-26T14:12:02.467Z,6.30
2019-06-26T14:14:52.641Z,6.03
2019-06-26T14:16:59.232Z,6.47
2019-06-26T14:19:26.977Z,6.50
2019-06-26T14:21:54.666Z,4.92
2019-06-26T14:24:22.124Z,5.07
2019-06-26T14:26:49.549Z,5.07
2019-06-26T14:29:21.023Z,4.33
2019-06-26T14:31:46.280Z,4.60
2019-06-26T14:34:13.729Z,5.07
2019-06-26T14:36:41.498Z,5.17
2019-06-26T14:39:08.865Z,5.80
2019-06-26T14:41:39.081Z,5.63
2019-06-26T14:44:05.643Z,5.43
2019-06-26T14:46:33.083Z,5.03
2019-06-26T14:49:00.553Z,5.73
2019-06-26T14:51:41.803Z,5.27
2019-06-26T14:53:57.206Z,5.27
2019-06-26T14:56:24.582Z,4.33
2019-06-26T14:58:51.973Z,4.63
2019-06-26T15:01:19.318Z,3.93
2019-06-26T15:03:47.105Z,4.83
2019-06-26T15:06:16.954Z,5.10
2019-06-26T15:08:44.362Z,5.87
2019-06-26T15:11:14.645Z,5.17
2019-06-26T15:13:41.527Z,5.10
2019-06-26T15:16:08.882Z,5.35
2019-06-26T15:18:36.268Z,4.92
2019-06-26T15:21:03.624Z,4.80
2019-06-26T15:23:31.283Z,5.55
2019-06-26T15:25:59.046Z,5.12
2019-06-26T15:28:26.387Z,5.10
2019-06-26T15:30:53.687Z,5.40
2019-06-26T15:33:21.131Z,5.37
2019-06-26T15:35:48.434Z,5.78
2019-06-26T15:38:16.281Z,5.62
2019-06-26T15:40:44.022Z,5.85
2019-06-26T15:43:11.339Z,6.40
2019-06-26T15:45:39.425Z,6.08
2019-06-26T15:48:06.892Z,5.83
2019-06-26T15:50:34.712Z,5.80
2019-06-26T15:53:02.456Z,5.47
2019-06-26T15:55:29.885Z,6.07
2019-06-26T15:57:57.289Z,6.10
2019-06-26T16:00:25.194Z,5.30
2019-06-26T16:02:52.512Z,6.53
2019-06-26T16:05:19.893Z,6.03
2019-06-26T16:07:47.320Z,5.40
2019-06-26T16:10:15.600Z,5.07
2019-06-26T16:12:42.958Z,6.50
2019-06-26T16:15:10.734Z,5.30
2019-06-26T16:18:03.614Z,5.77
2019-06-26T16:20:31.151Z,5.77
2019-06-26T16:22:58.651Z,6.20
2019-06-26T16:25:26.098Z,5.17
2019-06-26T16:28:04.716Z,6.40
2019-06-26T16:30:23.021Z,5.87
2019-06-26T16:32:50.416Z,5.80
2019-06-26T16:35:18.130Z,5.90
2019-06-26T16:37:45.584Z,6.20
2019-06-26T16:40:12.916Z,6.40
2019-06-26T16:42:40.374Z,6.13
2019-06-26T16:45:08.004Z,5.73
2019-06-26T16:47:35.328Z,6.87
2019-06-26T16:50:02.869Z,5.90
2019-06-26T16:52:30.312Z,6.87
2019-06-26T16:54:57.982Z,7.07
2019-06-26T16:57:25.385Z,6.23
2019-06-26T17:00:08.459Z,6.57
2019-06-26T17:02:22.068Z,6.03
2019-06-26T17:04:49.831Z,6.37
2019-06-26T17:07:17.147Z,6.97
2019-06-26T17:09:44.580Z,6.90
2019-06-26T17:12:11.985Z,6.23
2019-06-26T17:14:39.585Z,5.70
2019-06-26T17:17:07.126Z,6.27
2019-06-26T17:19:34.582Z,6.43
2019-06-26T17:22:02.160Z,6.93
2019-06-26T17:24:29.555Z,6.00
2019-06-26T17:26:59.360Z,6.07
2019-06-26T17:29:26.238Z,6.03
2019-06-26T17:31:53.673Z,6.23
2019-06-26T17:34:21.179Z,6.40
2019-06-26T17:36:48.570Z,6.40
2019-06-26T17:39:15.974Z,7.50
2019-06-26T17:41:44.179Z,6.30
2019-06-26T17:44:11.883Z,7.07
2019-06-26T17:46:39.262Z,7.10
2019-06-26T17:49:06.710Z,6.73
2019-06-26T17:51:34.280Z,7.07
2019-06-26T17:54:02.077Z,6.50
2019-06-26T17:56:29.570Z,7.80
2019-06-26T17:58:57.052Z,7.93
2019-06-26T18:01:24.481Z,8.73
2019-06-26T18:03:52.003Z,8.00
2019-06-26T18:06:19.490Z,8.20
2019-06-26T18:08:47.253Z,7.87
2019-06-26T18:11:14.579Z,7.43
2019-06-26T18:13:41.961Z,8.10
2019-06-26T18:16:09.343Z,8.07
2019-06-26T18:18:36.838Z,8.53
2019-06-26T18:21:05.663Z,7.53
2019-06-26T18:23:38.032Z,7.90
2019-06-26T18:26:12.316Z,8.10
2019-06-26T18:28:32.056Z,7.90
2019-06-26T18:30:59.591Z,8.60
2019-06-26T18:33:26.975Z,8.43
2019-06-26T18:35:54.828Z,9.70
2019-06-26T18:38:22.272Z,10.23
2019-06-26T18:40:49.768Z,8.60
2019-06-26T18:43:17.256Z,7.63
2019-06-26T18:45:44.800Z,8.20
2019-06-26T18:48:12.153Z,8.13
2019-06-26T18:50:39.721Z,7.97
2019-06-26T18:53:07.340Z,9.63
2019-06-26T18:55:34.855Z,9.13
2019-06-26T18:58:02.420Z,8.40
2019-06-26T19:00:29.912Z,8.20
2019-06-26T19:02:57.417Z,8.60
2019-06-26T19:05:25.357Z,7.70
2019-06-26T19:07:53.374Z,8.97
2019-06-26T19:10:21.676Z,7.83
2019-06-26T19:12:49.151Z,8.40
2019-06-26T19:15:16.717Z,8.33
2019-06-26T19:17:44.285Z,8.17
2019-06-26T19:20:13.299Z,8.13
2019-06-26T19:22:40.732Z,7.87
2019-06-26T19:25:09.139Z,9.40
2019-06-26T19:27:36.644Z,7.97
2019-06-26T19:30:05.372Z,8.80
2019-06-26T19:32:37.170Z,8.20
2019-06-26T19:35:08.193Z,9.47
2019-06-26T19:37:32.530Z,8.47
2019-06-26T19:40:00.373Z,8.97
2019-06-26T19:42:28.224Z,8.90
2019-06-26T19:44:55.894Z,8.50
2019-06-26T19:47:23.550Z,9.50
2019-06-26T19:49:51.301Z,8.83
2019-06-26T19:52:18.889Z,8.67
2019-06-26T19:54:46.489Z,8.73
2019-06-26T19:57:14.133Z,7.43
2019-06-26T19:59:41.641Z,8.63
2019-06-26T20:02:09.142Z,9.07
2019-06-26T20:04:36.675Z,8.53
2019-06-26T20:07:04.796Z,8.17
2019-06-26T20:09:32.326Z,8.50
2019-06-26T20:11:59.795Z,8.70
2019-06-26T20:14:27.754Z,8.50
2019-06-26T20:16:55.209Z,8.47
2019-06-26T20:19:22.761Z,8.07
2019-06-26T20:21:50.732Z,8.27
2019-06-26T20:24:18.150Z,8.73
2019-06-26T20:26:45.684Z,7.90
2019-06-26T20:29:13.207Z,9.30
2019-06-26T20:31:40.701Z,9.00
2019-06-26T20:34:08.412Z,9.70
2019-06-26T20:36:35.920Z,8.20
2019-06-26T20:39:04.310Z,10.50
2019-06-26T20:41:31.809Z,8.90
2019-06-26T20:43:59.338Z,8.77
2019-06-26T20:46:26.832Z,8.50
2019-06-26T20:48:56.129Z,9.60
2019-06-26T20:51:23.473Z,8.60
2019-06-26T20:53:51.035Z,9.75
2019-06-26T20:56:18.507Z,8.90
2019-06-26T20:58:45.983Z,10.10
2019-06-26T21:01:13.438Z,10.67
2019-06-26T21:03:40.894Z,10.43
2019-06-26T21:06:08.369Z,9.77
2019-06-26T21:08:35.772Z,10.80
2019-06-26T21:11:03.183Z,10.30
2019-06-26T21:13:30.626Z,10.43
2019-06-26T21:15:58.209Z,11.20
2019-06-26T21:18:25.684Z,11.03
2019-06-26T21:20:53.167Z,9.90
2019-06-26T21:23:23.331Z,10.03
2019-06-26T21:25:50.287Z,9.67
2019-06-26T21:28:17.914Z,10.27
2019-06-26T21:30:45.352Z,10.13
2019-06-26T21:33:12.752Z,10.13
2019-06-26T21:35:40.185Z,10.20
2019-06-26T21:38:07.606Z,9.77
2019-06-26T21:40:34.992Z,10.97
2019-06-26T21:43:02.747Z,10.50
2019-06-26T21:45:30.507Z,10.23
2019-06-26T21:47:57.946Z,10.80
2019-06-26T21:50:28.714Z,10.67
2019-06-26T21:52:57.831Z,10.30
2019-06-26T21:55:34.303Z,10.60
2019-06-26T21:57:54.940Z,10.13
2019-06-26T22:00:22.860Z,10.33
2019-06-26T22:02:50.323Z,11.03
2019-06-26T22:05:17.847Z,11.37
2019-06-26T22:07:45.276Z,10.60
2019-06-26T22:10:12.714Z,9.30
2019-06-26T22:12:40.353Z,9.03
2019-06-26T22:15:08.538Z,9.07
2019-06-26T22:17:36.261Z,10.20
2019-06-26T22:20:08.064Z,10.30
2019-06-26T22:22:34.220Z,11.10
2019-06-26T22:25:01.686Z,10.47
2019-06-26T22:27:29.483Z,10.53
2019-06-26T22:29:56.879Z,12.00
2019-06-26T22:32:24.281Z,11.27
2019-06-26T22:34:51.726Z,11.93
2019-06-26T22:37:19.223Z,11.27
2019-06-26T22:39:46.741Z,10.90
2019-06-26T22:42:14.222Z,10.80
2019-06-26T22:44:41.487Z,12.17
2019-06-26T22:47:08.869Z,11.37
2019-06-26T22:49:36.350Z,11.20
2019-06-26T22:52:03.907Z,11.70
2019-06-26T22:54:31.372Z,10.67
2019-06-26T22:56:58.930Z,9.90
2019-06-26T22:59:26.238Z,11.10
2019-06-26T23:01:53.578Z,11.40
2019-06-26T23:04:20.882Z,11.90
2019-06-26T23:06:48.326Z,9.60
2019-06-26T23:09:15.627Z,10.37
2019-06-26T23:11:43.086Z,11.13
2019-06-26T23:14:10.438Z,10.20
2019-06-26T23:16:38.020Z,11.60
2019-06-26T23:19:07.954Z,10.43
2019-06-26T23:21:35.331Z,11.73
2019-06-26T23:24:02.815Z,11.97
2019-06-26T23:26:30.400Z,12.17
2019-06-26T23:29:00.883Z,12.80
2019-06-26T23:31:28.778Z,10.73
2019-06-26T23:33:56.172Z,10.83
2019-06-26T23:36:23.513Z,12.23
2019-06-26T23:38:51.060Z,10.20
2019-06-26T23:41:18.533Z,11.80
2019-06-26T23:43:48.026Z,11.87
2019-06-26T23:46:15.606Z,12.03
2019-06-26T23:48:45.680Z,11.90
2019-06-26T23:51:12.384Z,10.87
2019-06-26T23:53:39.836Z,11.60
2019-06-26T23:56:07.633Z,12.70
2019-06-26T23:58:35.318Z,10.30
